createdAt,value
2018-01-19T00:00:00.426Z,0.47
2018-01-19T00:02:28.038Z,0.49
2018-01-19T00:04:55.566Z,0.51
2018-01-19T00:07:23.274Z,0.52
2018-01-19T00:09:50.840Z,0.58
2018-01-19T00:12:18.366Z,0.57
2018-01-19T00:14:46.121Z,0.49
2018-01-19T00:17:13.659Z,0.51
2018-01-19T00:19:41.189Z,0.37
2018-01-19T00:22:08.976Z,0.30
2018-01-19T00:24:36.549Z,0.17
2018-01-19T00:27:04.210Z,0.12
2018-01-19T00:29:31.742Z,0.04
2018-01-19T00:31:59.318Z,0.01
2018-01-19T00:34:26.865Z,0.06
2018-01-19T00:36:54.403Z,0.04
2018-01-19T00:39:22.103Z,0.06
2018-01-19T00:41:49.794Z,0.12
2018-01-19T00:44:17.434Z,0.17
2018-01-19T00:46:44.978Z,0.21
2018-01-19T00:49:12.675Z,0.17
2018-01-19T00:51:40.254Z,0.17
2018-01-19T00:54:07.791Z,0.14
2018-01-19T00:56:35.354Z,0.17
2018-01-19T00:59:02.894Z,0.16
2018-01-19T01:01:30.421Z,0.08
2018-01-19T01:03:57.973Z,0.05
2018-01-19T01:06:25.510Z,0.00
2018-01-19T01:08:53.059Z,-0.19
2018-01-19T01:11:20.594Z,-0.17
2018-01-19T01:13:48.178Z,-0.13
2018-01-19T01:16:15.734Z,-0.18
2018-01-19T01:18:43.262Z,-0.19
2018-01-19T01:21:10.834Z,-0.21
2018-01-19T01:23:38.374Z,-0.19
2018-01-19T01:26:05.925Z,-0.19
2018-01-19T01:28:33.473Z,-0.27
2018-01-19T01:31:01.067Z,-0.24
2018-01-19T01:33:28.609Z,-0.29
2018-01-19T01:35:56.405Z,-0.30
2018-01-19T01:38:23.947Z,-0.21
2018-01-19T01:40:51.482Z,-0.10
2018-01-19T01:43:19.024Z,0.01
2018-01-19T01:45:46.545Z,0.03
2018-01-19T01:48:14.130Z,0.05
2018-01-19T01:50:41.654Z,0.11
2018-01-19T01:53:09.331Z,0.09
2018-01-19T01:55:36.951Z,0.05
2018-01-19T01:58:04.666Z,-0.03
2018-01-19T02:00:32.239Z,-0.05
2018-01-19T02:02:59.762Z,-0.08
2018-01-19T02:05:27.346Z,0.00
2018-01-19T02:07:55.136Z,-0.12
2018-01-19T02:10:22.682Z,-0.19
2018-01-19T02:12:50.346Z,-0.21
2018-01-19T02:15:17.903Z,-0.23
2018-01-19T02:17:45.462Z,-0.27
2018-01-19T02:20:13.086Z,-0.30
2018-01-19T02:22:40.686Z,-0.34
2018-01-19T02:25:08.462Z,-0.36
2018-01-19T02:27:36.082Z,-0.41
2018-01-19T02:30:03.800Z,-0.32
2018-01-19T02:32:31.333Z,-0.33
2018-01-19T02:34:58.906Z,-0.28
2018-01-19T02:37:26.426Z,-0.31
2018-01-19T02:39:53.956Z,-0.34
2018-01-19T02:42:21.554Z,-0.30
2018-01-19T02:44:49.304Z,-0.28
2018-01-19T02:47:16.864Z,-0.29
2018-01-19T02:49:44.494Z,-0.32
2018-01-19T02:52:12.259Z,-0.30
2018-01-19T02:54:39.877Z,-0.31
2018-01-19T02:57:07.410Z,-0.28
2018-01-19T02:59:34.987Z,-0.33
2018-01-19T03:02:02.685Z,-0.32
2018-01-19T03:04:30.450Z,-0.33
2018-01-19T03:06:57.981Z,-0.32
2018-01-19T03:09:25.682Z,-0.33
2018-01-19T03:11:53.227Z,-0.33
2018-01-19T03:14:20.918Z,-0.45
2018-01-19T03:16:48.470Z,-0.52
2018-01-19T03:19:16.022Z,-0.51
2018-01-19T03:21:43.670Z,-0.51
2018-01-19T03:24:11.218Z,-0.60
2018-01-19T03:26:38.906Z,-0.65
2018-01-19T03:29:06.466Z,-0.62
2018-01-19T03:31:34.241Z,-0.54
2018-01-19T03:34:01.960Z,-0.54
2018-01-19T03:36:29.505Z,-0.52
2018-01-19T03:38:57.035Z,-0.52
2018-01-19T03:41:24.716Z,-0.44
2018-01-19T03:43:52.314Z,-0.45
2018-01-19T03:46:20.024Z,-0.44
2018-01-19T03:48:47.658Z,-0.39
2018-01-19T03:51:15.242Z,-0.36
2018-01-19T03:53:43.002Z,-0.33
2018-01-19T03:56:10.542Z,-0.30
2018-01-19T03:58:38.130Z,-0.30
2018-01-19T04:01:05.673Z,-0.30
2018-01-19T04:03:33.266Z,-0.28
2018-01-19T04:06:00.895Z,-0.21
2018-01-19T04:08:28.608Z,-0.22
2018-01-19T04:10:56.326Z,-0.22
2018-01-19T04:13:23.945Z,-0.21
2018-01-19T04:15:51.490Z,-0.17
2018-01-19T04:18:19.027Z,-0.13
2018-01-19T04:20:46.659Z,-0.20
2018-01-19T04:23:14.194Z,-0.19
2018-01-19T04:25:41.730Z,-0.18
2018-01-19T04:28:09.274Z,-0.16
2018-01-19T04:30:36.810Z,-0.14
2018-01-19T04:33:04.376Z,-0.11
2018-01-19T04:35:32.004Z,-0.03
2018-01-19T04:37:59.594Z,-0.01
2018-01-19T04:40:27.176Z,0.04
2018-01-19T04:42:54.714Z,0.14
2018-01-19T04:45:22.270Z,0.15
2018-01-19T04:47:49.892Z,0.13
2018-01-19T04:50:17.450Z,0.09
2018-01-19T04:52:45.228Z,0.08
2018-01-19T04:55:12.826Z,0.06
2018-01-19T04:57:40.666Z,0.01
2018-01-19T05:00:08.482Z,-0.04
2018-01-19T05:02:36.056Z,-0.11
2018-01-19T05:05:03.819Z,-0.23
2018-01-19T05:07:31.939Z,-0.37
2018-01-19T05:09:59.483Z,-0.46
2018-01-19T05:12:27.082Z,-0.57
2018-01-19T05:14:54.682Z,-0.67
2018-01-19T05:17:22.317Z,-0.61
2018-01-19T05:19:50.031Z,-0.58
2018-01-19T05:22:17.562Z,-0.53
2018-01-19T05:24:45.118Z,-0.47
2018-01-19T05:27:12.674Z,-0.41
2018-01-19T05:29:40.499Z,-0.34
2018-01-19T05:32:08.318Z,-0.30
2018-01-19T05:34:35.861Z,-0.30
2018-01-19T05:37:03.653Z,-0.31
2018-01-19T05:39:31.190Z,-0.29
2018-01-19T05:41:58.727Z,-0.26
2018-01-19T05:44:26.258Z,-0.26
2018-01-19T05:46:54.130Z,-0.27
2018-01-19T05:49:21.678Z,-0.21
2018-01-19T05:51:49.272Z,-0.22
2018-01-19T05:54:16.879Z,-0.18
2018-01-19T05:56:44.479Z,-0.15
2018-01-19T05:59:12.213Z,-0.10
2018-01-19T06:01:39.931Z,-0.06
2018-01-19T06:04:07.752Z,-0.03
2018-01-19T06:06:35.290Z,0.03
2018-01-19T06:09:02.838Z,0.13
2018-01-19T06:11:30.378Z,0.16
2018-01-19T06:13:58.028Z,0.17
2018-01-19T06:16:25.574Z,0.21
2018-01-19T06:18:53.166Z,0.22
2018-01-19T06:21:20.822Z,0.27
2018-01-19T06:23:48.491Z,0.28
2018-01-19T06:26:16.031Z,0.33
2018-01-19T06:28:43.578Z,0.39
2018-01-19T06:31:11.127Z,0.42
2018-01-19T06:33:38.767Z,0.53
2018-01-19T06:36:06.441Z,0.57
2018-01-19T06:38:34.026Z,0.64
2018-01-19T06:41:01.562Z,0.73
2018-01-19T06:43:29.242Z,0.87
2018-01-19T06:45:56.951Z,0.98
2018-01-19T06:48:25.495Z,1.12
2018-01-19T06:50:53.051Z,1.16
2018-01-19T06:53:20.619Z,1.23
2018-01-19T06:55:48.224Z,1.20
2018-01-19T06:58:15.944Z,1.23
2018-01-19T07:00:43.499Z,1.25
2018-01-19T07:03:11.077Z,1.29
2018-01-19T07:05:38.610Z,1.39
2018-01-19T07:08:06.154Z,1.51
2018-01-19T07:10:33.824Z,1.59
2018-01-19T07:13:01.462Z,1.63
2018-01-19T07:15:29.108Z,1.72
2018-01-19T07:17:56.634Z,1.90
2018-01-19T07:20:24.226Z,2.11
2018-01-19T07:22:51.990Z,2.32
2018-01-19T07:25:20.050Z,2.57
2018-01-19T07:27:47.932Z,2.88
2018-01-19T07:30:15.514Z,3.17
2018-01-19T07:32:43.046Z,3.47
2018-01-19T07:35:10.578Z,4.06
2018-01-19T07:37:38.137Z,5.54
2018-01-19T07:40:05.930Z,7.82
2018-01-19T07:42:33.674Z,10.31
2018-01-19T07:45:01.323Z,12.26
2018-01-19T07:47:28.912Z,13.39
2018-01-19T07:49:56.795Z,14.49
2018-01-19T07:52:24.338Z,15.67
2018-01-19T07:54:51.892Z,16.50
2018-01-19T07:57:19.438Z,17.46
2018-01-19T07:59:47.094Z,18.05
2018-01-19T08:02:14.636Z,18.22
2018-01-19T08:04:42.335Z,18.65
2018-01-19T08:07:10.046Z,18.80
2018-01-19T08:09:37.602Z,19.46
2018-01-19T08:12:05.266Z,20.15
2018-01-19T08:14:32.802Z,20.53
2018-01-19T08:17:00.346Z,21.07
2018-01-19T08:19:28.034Z,21.69
2018-01-19T08:21:55.706Z,22.19
2018-01-19T08:24:23.268Z,22.62
2018-01-19T08:26:50.810Z,22.30
2018-01-19T08:29:18.363Z,22.15
2018-01-19T08:31:46.015Z,22.08
2018-01-19T08:34:13.613Z,21.59
2018-01-19T08:36:41.150Z,20.93
2018-01-19T08:39:08.734Z,20.63
2018-01-19T08:41:36.274Z,20.69
2018-01-19T08:44:03.818Z,21.07
2018-01-19T08:46:31.436Z,21.33
2018-01-19T08:48:58.993Z,20.96
2018-01-19T08:51:26.575Z,20.93
2018-01-19T08:53:54.383Z,20.55
2018-01-19T08:56:21.927Z,20.03
2018-01-19T08:58:49.627Z,20.03
2018-01-19T09:01:17.192Z,20.64
2018-01-19T09:03:44.790Z,20.32
2018-01-19T09:06:12.346Z,20.67
2018-01-19T09:08:40.092Z,20.86
2018-01-19T09:11:07.811Z,21.11
2018-01-19T09:13:35.419Z,20.79
2018-01-19T09:16:03.105Z,20.99
2018-01-19T09:18:30.637Z,21.15
2018-01-19T09:20:58.222Z,20.72
2018-01-19T09:23:25.759Z,20.97
2018-01-19T09:25:53.499Z,20.90
2018-01-19T09:28:21.212Z,20.58
2018-01-19T09:30:48.811Z,19.22
2018-01-19T09:33:16.479Z,17.97
2018-01-19T09:35:44.132Z,17.66
2018-01-19T09:38:11.712Z,17.17
2018-01-19T09:40:39.627Z,16.86
2018-01-19T09:43:07.162Z,16.32
2018-01-19T09:45:34.917Z,16.16
2018-01-19T09:48:02.769Z,16.33
2018-01-19T09:50:30.366Z,16.74
2018-01-19T09:52:57.966Z,17.53
2018-01-19T09:55:25.573Z,17.83
2018-01-19T09:57:53.113Z,18.53
2018-01-19T10:00:20.651Z,19.23
2018-01-19T10:02:48.295Z,20.03
2018-01-19T10:05:16.007Z,19.54
2018-01-19T10:07:44.185Z,19.21
2018-01-19T10:10:11.941Z,19.70
2018-01-19T10:12:39.634Z,20.36
2018-01-19T10:15:07.171Z,20.36
2018-01-19T10:17:34.799Z,20.21
2018-01-19T10:20:02.358Z,18.93
2018-01-19T10:22:29.950Z,18.45
2018-01-19T10:24:57.655Z,18.36
2018-01-19T10:27:25.365Z,18.62
2018-01-19T10:29:53.094Z,18.80
2018-01-19T10:32:20.830Z,18.97
2018-01-19T10:34:48.621Z,19.17
2018-01-19T10:37:16.173Z,19.17
2018-01-19T10:39:43.747Z,19.13
2018-01-19T10:42:11.290Z,19.05
2018-01-19T10:44:38.826Z,18.86
2018-01-19T10:47:06.371Z,18.80
2018-01-19T10:49:33.980Z,18.87
2018-01-19T10:52:01.578Z,19.22
2018-01-19T10:54:29.115Z,19.40
2018-01-19T10:56:56.650Z,19.67
2018-01-19T10:59:25.392Z,19.77
2018-01-19T11:01:52.935Z,19.62
2018-01-19T11:04:20.558Z,19.63
2018-01-19T11:06:48.162Z,19.48
2018-01-19T11:09:15.878Z,19.23
2018-01-19T11:11:43.482Z,19.31
2018-01-19T11:14:11.034Z,19.80
2018-01-19T11:16:38.638Z,20.21
2018-01-19T11:19:06.347Z,20.48
2018-01-19T11:21:33.931Z,21.11
2018-01-19T11:24:01.629Z,20.78
2018-01-19T11:26:29.300Z,20.11
2018-01-19T11:28:56.830Z,20.08
2018-01-19T11:31:24.406Z,20.57
2018-01-19T11:33:52.010Z,20.84
2018-01-19T11:36:19.559Z,21.20
2018-01-19T11:38:47.287Z,21.04
2018-01-19T11:41:14.822Z,21.64
2018-01-19T11:43:42.522Z,22.39
2018-01-19T11:46:10.094Z,22.59
2018-01-19T11:48:37.771Z,23.17
2018-01-19T11:51:05.326Z,23.31
2018-01-19T11:53:32.871Z,23.84
2018-01-19T11:56:00.409Z,23.73
2018-01-19T11:58:27.956Z,22.83
2018-01-19T12:00:55.543Z,22.25
2018-01-19T12:03:23.367Z,21.19
2018-01-19T12:05:51.185Z,20.42
2018-01-19T12:08:18.729Z,20.46
2018-01-19T12:10:46.263Z,20.06
2018-01-19T12:13:14.009Z,19.85
2018-01-19T12:15:41.539Z,19.69
2018-01-19T12:18:09.118Z,19.72
2018-01-19T12:20:36.790Z,19.64
2018-01-19T12:23:04.335Z,18.86
2018-01-19T12:25:32.026Z,17.96
2018-01-19T12:27:59.642Z,17.38
2018-01-19T12:30:27.198Z,17.30
2018-01-19T12:32:54.730Z,17.37
2018-01-19T12:35:22.598Z,17.94
2018-01-19T12:37:50.146Z,18.58
2018-01-19T12:40:17.719Z,19.33
2018-01-19T12:42:45.319Z,19.53
2018-01-19T12:45:13.026Z,19.48
2018-01-19T12:47:40.626Z,19.69
2018-01-19T12:50:08.397Z,19.59
2018-01-19T12:52:35.946Z,19.68
2018-01-19T12:55:03.550Z,19.88
2018-01-19T12:57:31.163Z,18.97
2018-01-19T12:59:58.977Z,19.02
2018-01-19T13:02:26.515Z,19.54
2018-01-19T13:04:54.044Z,20.17
2018-01-19T13:07:21.586Z,20.60
2018-01-19T13:09:49.135Z,21.12
2018-01-19T13:12:16.702Z,21.63
2018-01-19T13:14:44.273Z,21.56
2018-01-19T13:17:12.188Z,21.62
2018-01-19T13:19:39.799Z,22.73
2018-01-19T13:22:07.344Z,22.86
2018-01-19T13:24:34.891Z,23.22
2018-01-19T13:27:02.636Z,23.02
2018-01-19T13:29:30.250Z,22.95
2018-01-19T13:31:57.969Z,22.92
2018-01-19T13:34:25.500Z,22.93
2018-01-19T13:36:53.344Z,23.72
2018-01-19T13:39:21.062Z,23.97
2018-01-19T13:41:48.645Z,24.30
2018-01-19T13:44:16.304Z,24.23
2018-01-19T13:46:43.838Z,25.06
2018-01-19T13:49:11.398Z,25.29
2018-01-19T13:51:38.931Z,25.22
2018-01-19T13:54:06.476Z,25.45
2018-01-19T13:56:34.014Z,25.68
2018-01-19T13:59:01.705Z,25.75
2018-01-19T14:01:29.242Z,25.67
2018-01-19T14:03:56.942Z,24.94
2018-01-19T14:06:24.504Z,23.85
2018-01-19T14:08:52.176Z,21.93
2018-01-19T14:11:19.782Z,21.22
2018-01-19T14:13:47.481Z,20.59
2018-01-19T14:16:15.066Z,20.26
2018-01-19T14:18:42.606Z,19.91
2018-01-19T14:21:10.156Z,19.57
2018-01-19T14:23:37.712Z,19.37
2018-01-19T14:26:05.254Z,19.79
2018-01-19T14:28:32.831Z,20.22
2018-01-19T14:31:00.542Z,20.91
2018-01-19T14:33:28.169Z,21.52
2018-01-19T14:35:55.763Z,21.77
2018-01-19T14:38:23.390Z,21.93
2018-01-19T14:40:50.953Z,22.11
2018-01-19T14:43:18.516Z,22.19
2018-01-19T14:45:46.075Z,21.94
2018-01-19T14:48:13.650Z,21.47
2018-01-19T14:50:41.245Z,20.85
2018-01-19T14:53:08.794Z,20.10
2018-01-19T14:55:36.412Z,18.52
2018-01-19T14:58:04.018Z,17.37
2018-01-19T15:00:31.667Z,16.41
2018-01-19T15:02:59.253Z,15.39
2018-01-19T15:05:26.958Z,14.75
2018-01-19T15:07:54.551Z,14.15
2018-01-19T15:10:22.086Z,13.70
2018-01-19T15:12:49.630Z,13.27
2018-01-19T15:15:17.264Z,12.77
2018-01-19T15:17:44.805Z,12.31
2018-01-19T15:20:12.503Z,11.89
2018-01-19T15:22:40.054Z,11.50
2018-01-19T15:25:07.619Z,11.36
2018-01-19T15:27:35.251Z,11.02
2018-01-19T15:30:02.966Z,10.72
2018-01-19T15:32:30.526Z,10.56
2018-01-19T15:34:58.089Z,10.39
2018-01-19T15:37:25.708Z,10.33
2018-01-19T15:39:54.242Z,10.19
2018-01-19T15:42:21.965Z,10.14
2018-01-19T15:44:49.519Z,10.04
2018-01-19T15:47:17.215Z,9.92
2018-01-19T15:49:44.766Z,9.75
2018-01-19T15:52:12.316Z,9.69
2018-01-19T15:54:39.943Z,9.56
2018-01-19T15:57:07.762Z,9.43
2018-01-19T15:59:35.301Z,9.29
2018-01-19T16:02:02.844Z,9.14
2018-01-19T16:04:30.397Z,8.99
2018-01-19T16:06:58.020Z,8.62
2018-01-19T16:09:25.565Z,8.54
2018-01-19T16:11:53.369Z,8.39
2018-01-19T16:14:20.934Z,8.34
2018-01-19T16:16:48.526Z,8.22
2018-01-19T16:19:16.104Z,8.21
2018-01-19T16:21:43.658Z,8.18
2018-01-19T16:24:11.458Z,8.10
2018-01-19T16:26:39.078Z,8.02
2018-01-19T16:29:06.771Z,7.93
2018-01-19T16:31:34.317Z,7.79
2018-01-19T16:34:01.882Z,7.79
2018-01-19T16:36:29.444Z,7.73
2018-01-19T16:38:56.991Z,7.55
2018-01-19T16:41:24.550Z,7.61
2018-01-19T16:43:52.301Z,7.56
2018-01-19T16:46:19.922Z,7.48
2018-01-19T16:48:47.466Z,7.51
2018-01-19T16:51:15.163Z,7.52
2018-01-19T16:53:42.718Z,7.55
2018-01-19T16:56:10.449Z,7.55
2018-01-19T16:58:37.994Z,7.60
2018-01-19T17:01:05.534Z,7.65
2018-01-19T17:03:33.070Z,7.67
2018-01-19T17:06:00.626Z,7.73
2018-01-19T17:08:28.175Z,7.75
2018-01-19T17:10:55.997Z,7.72
2018-01-19T17:13:23.660Z,7.66
2018-01-19T17:15:51.461Z,7.57
2018-01-19T17:18:19.078Z,7.48
2018-01-19T17:20:46.869Z,7.48
2018-01-19T17:23:14.475Z,7.49
2018-01-19T17:25:42.009Z,7.49
2018-01-19T17:28:09.537Z,7.53
2018-01-19T17:30:37.248Z,7.60
2018-01-19T17:33:04.780Z,7.61
2018-01-19T17:35:32.371Z,7.68
2018-01-19T17:37:59.903Z,7.72
2018-01-19T17:40:27.611Z,7.69
2018-01-19T17:42:55.145Z,7.66
2018-01-19T17:45:22.674Z,7.56
2018-01-19T17:47:50.466Z,7.53
2018-01-19T17:50:17.994Z,7.45
2018-01-19T17:52:45.534Z,7.37
2018-01-19T17:55:13.078Z,7.29
2018-01-19T17:57:40.625Z,7.21
2018-01-19T18:00:08.230Z,7.19
2018-01-19T18:02:35.762Z,7.20
2018-01-19T18:05:03.494Z,7.20
2018-01-19T18:07:31.090Z,7.17
2018-01-19T18:09:58.653Z,7.10
2018-01-19T18:12:26.266Z,7.13
2018-01-19T18:14:53.826Z,7.11
2018-01-19T18:17:21.418Z,7.07
2018-01-19T18:19:48.970Z,6.99
2018-01-19T18:22:16.713Z,6.89
2018-01-19T18:24:44.430Z,6.79
2018-01-19T18:27:11.990Z,6.70
2018-01-19T18:29:39.522Z,6.76
2018-01-19T18:32:07.074Z,6.75
2018-01-19T18:34:34.606Z,6.98
2018-01-19T18:37:02.187Z,7.03
2018-01-19T18:39:29.722Z,7.04
2018-01-19T18:41:57.302Z,7.06
2018-01-19T18:44:24.975Z,7.04
2018-01-19T18:46:52.590Z,7.06
2018-01-19T18:49:20.198Z,7.10
2018-01-19T18:51:47.738Z,7.03
2018-01-19T18:54:15.270Z,6.96
2018-01-19T18:56:42.963Z,6.95
2018-01-19T18:59:10.522Z,6.90
2018-01-19T19:01:38.127Z,6.79
2018-01-19T19:04:05.721Z,6.75
2018-01-19T19:06:33.533Z,6.74
2018-01-19T19:09:01.089Z,6.66
2018-01-19T19:11:28.622Z,6.64
2018-01-19T19:13:57.282Z,6.64
2018-01-19T19:16:24.832Z,6.48
2018-01-19T19:18:52.530Z,6.35
2018-01-19T19:21:20.117Z,6.22
2018-01-19T19:23:47.658Z,6.19
2018-01-19T19:26:15.480Z,6.15
2018-01-19T19:28:43.096Z,5.88
2018-01-19T19:31:10.823Z,6.14
2018-01-19T19:33:38.370Z,6.12
2018-01-19T19:36:05.913Z,6.09
2018-01-19T19:38:33.546Z,5.99
2018-01-19T19:41:01.094Z,5.92
2018-01-19T19:43:28.696Z,5.92
2018-01-19T19:45:56.294Z,5.93
2018-01-19T19:48:23.827Z,5.83
2018-01-19T19:50:51.362Z,5.76
2018-01-19T19:53:18.914Z,5.70
2018-01-19T19:55:46.482Z,5.69
2018-01-19T19:58:14.102Z,5.62
2018-01-19T20:00:41.654Z,5.61
2018-01-19T20:03:09.182Z,5.62
2018-01-19T20:05:36.965Z,5.62
2018-01-19T20:08:04.582Z,5.61
2018-01-19T20:10:32.210Z,5.63
2018-01-19T20:13:00.025Z,5.65
2018-01-19T20:15:27.553Z,5.69
2018-01-19T20:17:55.102Z,5.69
2018-01-19T20:20:22.642Z,5.78
2018-01-19T20:22:50.390Z,5.82
2018-01-19T20:25:18.219Z,5.82
2018-01-19T20:27:46.029Z,5.90
2018-01-19T20:30:13.574Z,5.86
2018-01-19T20:32:41.362Z,5.86
2018-01-19T20:35:08.906Z,5.83
2018-01-19T20:37:36.597Z,5.81
2018-01-19T20:40:04.386Z,5.74
2018-01-19T20:42:31.974Z,5.63
2018-01-19T20:44:59.505Z,5.62
2018-01-19T20:47:27.046Z,5.67
2018-01-19T20:49:54.590Z,5.72
2018-01-19T20:52:22.305Z,5.74
2018-01-19T20:54:49.894Z,5.78
2018-01-19T20:57:17.743Z,5.81
2018-01-19T20:59:45.314Z,5.79
2018-01-19T21:02:13.030Z,5.71
2018-01-19T21:04:40.586Z,5.53
2018-01-19T21:07:08.166Z,5.47
2018-01-19T21:09:35.824Z,5.34
2018-01-19T21:12:03.378Z,5.21
2018-01-19T21:14:30.967Z,5.08
2018-01-19T21:16:58.566Z,4.94
2018-01-19T21:19:26.106Z,4.86
2018-01-19T21:21:53.653Z,4.85
2018-01-19T21:24:21.195Z,4.83
2018-01-19T21:26:48.747Z,4.85
2018-01-19T21:29:16.302Z,4.81
2018-01-19T21:31:44.089Z,4.79
2018-01-19T21:34:11.633Z,4.75
2018-01-19T21:36:39.175Z,4.70
2018-01-19T21:39:06.728Z,4.75
2018-01-19T21:41:34.274Z,4.81
2018-01-19T21:44:01.822Z,4.84
2018-01-19T21:46:29.365Z,4.89
2018-01-19T21:48:57.917Z,4.92
2018-01-19T21:51:25.734Z,4.88
2018-01-19T21:53:53.318Z,4.84
2018-01-19T21:56:20.974Z,4.85
2018-01-19T21:58:48.505Z,4.83
2018-01-19T22:01:16.050Z,4.88
2018-01-19T22:03:43.726Z,4.87
2018-01-19T22:06:11.385Z,4.75
2018-01-19T22:08:38.920Z,4.73
2018-01-19T22:11:06.578Z,4.64
2018-01-19T22:13:34.118Z,4.56
2018-01-19T22:16:01.674Z,4.42
2018-01-19T22:18:29.226Z,4.27
2018-01-19T22:20:56.762Z,4.18
2018-01-19T22:23:24.354Z,4.09
2018-01-19T22:25:51.896Z,3.96
2018-01-19T22:28:19.434Z,3.96
2018-01-19T22:30:46.970Z,3.95
2018-01-19T22:33:14.706Z,3.93
2018-01-19T22:35:42.262Z,3.75
2018-01-19T22:38:09.806Z,3.74
2018-01-19T22:40:37.381Z,3.70
2018-01-19T22:43:04.909Z,3.67
2018-01-19T22:45:32.487Z,3.63
2018-01-19T22:48:00.039Z,3.51
2018-01-19T22:50:27.582Z,3.51
2018-01-19T22:52:55.122Z,3.60
2018-01-19T22:55:22.650Z,3.60
2018-01-19T22:57:50.479Z,3.67
2018-01-19T23:00:21.046Z,3.72
2018-01-19T23:02:48.582Z,3.77
2018-01-19T23:05:16.278Z,3.82
2018-01-19T23:07:43.817Z,3.81
2018-01-19T23:10:11.398Z,3.81
2018-01-19T23:12:39.034Z,3.76
2018-01-19T23:15:06.848Z,3.81
2018-01-19T23:17:34.382Z,3.71
2018-01-19T23:20:02.186Z,3.63
2018-01-19T23:22:29.902Z,3.49
2018-01-19T23:24:57.446Z,3.42
2018-01-19T23:27:25.138Z,3.32
2018-01-19T23:29:52.762Z,3.35
2018-01-19T23:32:20.438Z,3.40
2018-01-19T23:34:47.974Z,3.42
2018-01-19T23:37:15.518Z,3.47
2018-01-19T23:39:43.328Z,3.61
2018-01-19T23:42:10.853Z,3.75
2018-01-19T23:44:38.406Z,3.80
2018-01-19T23:47:05.942Z,3.88
2018-01-19T23:49:33.658Z,3.99
2018-01-19T23:52:01.185Z,4.00
2018-01-19T23:54:28.726Z,4.04
2018-01-19T23:56:56.407Z,4.04
2018-01-19T23:59:23.952Z,4.01
